Time;durP1;ratioP1;P1;durP2;ratioP2;P2;SDS_P1;SDS_P2;PMS_P1;PMS_P2;Temp;Humidity;BMP_temperature;BMP_pressure;BME280_temperature;BME280_humidity;BME280_pressure;Samples;Min_cycle;Max_cycle;Signal;HPM_P1;HPM_P2
2023/05/06 08:18:32;;;;;;;;;4.00;4.00;;;;;;;;6391090;22;28398;-86
2023/05/06 08:21:22;;;;;;;;;5.00;5.00;;;;;;;;6362920;22;28393;-89
2023/05/06 08:33:34;;;;;;;;;4.00;4.00;;;;;;;;6239372;22;28459;-91
2023/05/06 09:03:17;;;;;;;;;3.00;3.00;;;;;;;;6360496;22;28338;-87
2023/05/06 09:05:42;;;;;;;;;4.00;4.00;;;;;;;;6359679;22;28261;-87
2023/05/06 09:08:07;;;;;;;;;4.67;4.67;;;;;;;;6359936;22;28747;-85
2023/05/06 09:10:43;;;;;;;;;3.00;3.00;;;;;;;;6358643;22;28452;-85
2023/05/06 09:13:12;;;;;;;;;4.33;4.33;;;;;;;;6359846;22;28638;-86
2023/05/06 09:15:38;;;;;;;;;4.00;4.00;;;;;;;;6358928;22;28527;-86
2023/05/06 09:18:04;;;;;;;;;3.33;3.33;;;;;;;;6362084;22;28443;-85
2023/05/06 09:20:31;;;;;;;;;3.67;3.67;;;;;;;;6360799;22;28385;-86
2023/05/06 09:22:57;;;;;;;;;4.00;4.00;;;;;;;;6363797;22;28255;-85
2023/05/06 09:25:22;;;;;;;;;3.00;3.00;;;;;;;;6359381;22;29643;-85
2023/05/06 09:27:47;;;;;;;;;3.33;3.33;;;;;;;;6356823;22;29352;-87
2023/05/06 09:30:13;;;;;;;;;3.00;3.00;;;;;;;;6357806;22;28288;-87
2023/05/06 09:32:38;;;;;;;;;4.67;3.33;;;;;;;;6359555;22;28479;-87
2023/05/06 09:35:04;;;;;;;;;3.67;2.67;;;;;;;;6361459;22;28340;-87
2023/05/06 09:37:29;;;;;;;;;3.00;3.00;;;;;;;;6363539;22;28173;-87
2023/05/06 09:39:55;;;;;;;;;3.00;3.00;;;;;;;;6362533;22;28346;-89
2023/05/06 09:42:25;;;;;;;;;1.00;1.00;;;;;;;;6360597;22;28411;-88
2023/05/06 09:44:51;;;;;;;;;1.33;1.33;;;;;;;;6360801;22;30088;-86
2023/05/06 09:47:17;;;;;;;;;2.00;2.00;;;;;;;;6361974;22;28228;-86
2023/05/06 09:49:42;;;;;;;;;2.00;2.00;;;;;;;;6362626;22;28239;-88
2023/05/06 09:52:08;;;;;;;;;2.00;2.00;;;;;;;;6363418;22;28253;-86
2023/05/06 09:54:34;;;;;;;;;2.00;2.00;;;;;;;;6362253;22;28712;-88
2023/05/06 09:57:01;;;;;;;;;2.33;2.33;;;;;;;;6362627;22;28334;-87
2023/05/06 09:59:46;;;;;;;;;2.00;2.00;;;;;;;;6360776;22;28316;-90
2023/05/06 10:02:15;;;;;;;;;2.00;2.00;;;;;;;;6359725;22;28429;-90
2023/05/06 10:04:40;;;;;;;;;2.67;2.67;;;;;;;;6362659;22;28276;-86
2023/05/06 10:07:08;;;;;;;;;1.67;1.67;;;;;;;;6363504;22;28173;-87
2023/05/06 10:09:34;;;;;;;;;1.67;1.67;;;;;;;;6362461;22;28252;-86
2023/05/06 10:12:03;;;;;;;;;2.00;2.00;;;;;;;;6362099;22;28242;-86
2023/05/06 10:14:28;;;;;;;;;1.67;1.67;;;;;;;;6358697;22;29864;-87
2023/05/06 10:16:53;;;;;;;;;2.00;2.00;;;;;;;;6358683;22;28909;-89
2023/05/06 10:19:21;;;;;;;;;1.00;1.00;;;;;;;;6360247;22;28407;-87
2023/05/06 10:21:50;;;;;;;;;2.00;2.00;;;;;;;;6360954;22;28489;-87
2023/05/06 10:24:18;;;;;;;;;1.00;1.00;;;;;;;;6362006;22;29370;-86
2023/05/06 10:26:45;;;;;;;;;1.00;1.00;;;;;;;;6361081;22;28319;-87
2023/05/06 10:29:12;;;;;;;;;2.00;2.00;;;;;;;;6360787;22;28445;-87
2023/05/06 10:31:39;;;;;;;;;2.00;2.00;;;;;;;;6362667;22;28259;-87
2023/05/06 10:34:06;;;;;;;;;1.33;1.33;;;;;;;;6362550;22;29533;-87
2023/05/06 10:36:35;;;;;;;;;3.00;3.00;;;;;;;;6360443;22;28581;-87
2023/05/06 10:39:02;;;;;;;;;2.00;2.00;;;;;;;;6358872;22;28415;-87
2023/05/06 10:41:27;;;;;;;;;1.33;1.33;;;;;;;;6361839;22;28171;-87
2023/05/06 10:43:56;;;;;;;;;1.67;1.67;;;;;;;;6362930;22;29180;-87
2023/05/06 10:46:22;;;;;;;;;1.00;1.00;;;;;;;;6360943;22;28410;-86
2023/05/06 10:49:12;;;;;;;;;0.33;0.33;;;;;;;;6362164;22;28450;-87
2023/05/06 10:51:38;;;;;;;;;2.00;2.00;;;;;;;;6363141;22;28245;-86
2023/05/06 10:54:05;;;;;;;;;0.67;0.67;;;;;;;;6362901;22;28220;-87
2023/05/06 10:56:30;;;;;;;;;1.00;1.00;;;;;;;;6362126;22;28237;-87
2023/05/06 10:58:56;;;;;;;;;3.00;1.00;;;;;;;;6360224;22;28399;-87
2023/05/06 11:01:24;;;;;;;;;0.00;0.00;;;;;;;;6362829;22;28466;-87
2023/05/06 11:03:50;;;;;;;;;2.00;1.00;;;;;;;;6361609;22;28487;-87
2023/05/06 11:06:35;;;;;;;;;1.67;1.00;;;;;;;;6363089;22;28269;-87
2023/05/06 11:09:00;;;;;;;;;2.67;2.67;;;;;;;;6362791;22;28256;-88
2023/05/06 11:11:44;;;;;;;;;1.33;1.33;;;;;;;;6363002;22;28306;-87
2023/05/06 11:14:29;;;;;;;;;0.67;0.67;;;;;;;;6362572;22;28394;-88
2023/05/06 11:16:56;;;;;;;;;2.00;1.00;;;;;;;;6362577;22;28281;-88
2023/05/06 11:19:29;;;;;;;;;1.67;1.67;;;;;;;;6362743;22;28283;-88
2023/05/06 11:22:01;;;;;;;;;1.00;1.00;;;;;;;;6362015;22;28550;-93
2023/05/06 11:25:08;;;;;;;;;2.00;1.00;;;;;;;;6361897;22;28438;-90
2023/05/06 11:30:43;;;;;;;;;1.00;1.00;;;;;;;;6392856;22;28228;-89
2023/05/06 11:33:12;;;;;;;;;1.00;1.00;;;;;;;;6393871;22;28225;-88
2023/05/06 11:35:38;;;;;;;;;2.00;2.00;;;;;;;;6365916;22;29906;-88
2023/05/06 11:38:03;;;;;;;;;1.00;1.00;;;;;;;;6394578;22;28361;-88
2023/05/06 11:40:29;;;;;;;;;2.00;2.00;;;;;;;;6363851;22;28267;-88
2023/05/06 11:42:55;;;;;;;;;1.67;1.00;;;;;;;;6394333;22;28470;-88
2023/05/06 11:45:20;;;;;;;;;3.00;1.33;;;;;;;;6394906;22;28286;-91
2023/05/06 11:47:45;;;;;;;;;1.00;1.00;;;;;;;;6394627;22;28254;-92
2023/05/06 11:50:11;;;;;;;;;0.00;0.00;;;;;;;;6365216;22;28355;-93
2023/05/06 11:55:53;;;;;;;;;0.33;0.33;;;;;;;;6234770;22;28351;-92
2023/05/06 11:58:23;;;;;;;;;1.00;1.00;;;;;;;;6274815;22;28471;-93
2023/05/06 12:07:43;;;;;;;;;;;;;;;;;;;;;
2023/05/06 12:19:20;;;;;;;;;1.00;1.00;;;;;;;;6308444;22;29976;-91
2023/05/06 12:28:27;;;;;;;;;0.00;0.00;;;;;;;;6264704;22;28572;-91
2023/05/06 12:31:24;;;;;;;;;;;;;;;;;;;;;
2023/05/06 12:46:43;;;;;;;;;;;;;;;;;;;;;
2023/05/06 12:49:39;;;;;;;;;;;;;;;;;;;;;
2023/05/06 12:55:41;;;;;;;;;1.00;1.00;;;;;;;;6342169;22;29211;-91
2023/05/06 12:59:06;;;;;;;;;;;;;;;;;;;;;
2023/05/06 13:01:51;;;;;;;;;;;;;;;;;;;;;
2023/05/06 13:35:43;;;;;;;;;;;;;;;;;;;;;
2023/05/06 13:53:28;;;;;;;;;1.00;1.00;;;;;;;;6361451;22;28165;-90
2023/05/06 13:56:14;;;;;;;;;1.00;1.00;;;;;;;;6362360;22;28422;-90
2023/05/06 13:58:42;;;;;;;;;1.00;1.00;;;;;;;;6348992;22;28698;-90
2023/05/06 14:01:15;;;;;;;;;1.00;1.00;;;;;;;;6360313;22;28534;-90
2023/05/06 14:03:42;;;;;;;;;1.00;1.00;;;;;;;;6362978;22;28326;-90
2023/05/06 14:06:17;;;;;;;;;4.00;3.00;;;;;;;;6358233;22;29981;-91
2023/05/06 14:08:46;;;;;;;;;1.00;1.00;;;;;;;;6357950;22;28749;-90
2023/05/06 14:11:16;;;;;;;;;1.00;1.00;;;;;;;;6360587;22;28259;-91
2023/05/06 14:13:44;;;;;;;;;2.00;2.00;;;;;;;;6360402;22;28462;-90
2023/05/06 14:32:31;;;;;;;;;;;;;;;;;;;;;
2023/05/06 14:44:06;;;;;;;;;;;;;;;;;;;;;
2023/05/06 14:47:05;;;;;;;;;1.00;1.00;;;;;;;;6289605;22;54544;-91
2023/05/06 14:55:44;;;;;;;;;;;;;;;;;;;;;
2023/05/06 14:58:45;;;;;;;;;;;;;;;;;;;;;
2023/05/06 15:01:41;;;;;;;;;;;;;;;;;;;;;
2023/05/06 15:04:14;;;;;;;;;0.67;0.67;;;;;;;;6354119;22;58189;-91
2023/05/06 15:07:01;;;;;;;;;;;;;;;;;;;;;
2023/05/06 15:09:44;;;;;;;;;;;;;;;;;;;;;
2023/05/06 15:12:27;;;;;;;;;;;;;;;;;;;;;
2023/05/06 15:14:57;;;;;;;;;1.00;1.00;;;;;;;;6360923;22;56713;-91
2023/05/06 15:17:32;;;;;;;;;;;;;;;;;;;;;
2023/05/06 15:20:05;;;;;;;;;1.00;1.00;;;;;;;;6360019;22;54623;-90
2023/05/06 15:22:50;;;;;;;;;1.00;1.00;;;;;;;;6360586;22;28438;-91
2023/05/06 15:25:46;;;;;;;;;;;;;;;;;;;;;
2023/05/06 15:41:30;;;;;;;;;;;;;;;;;;;;;
2023/05/06 15:53:34;;;;;;;;;;;;;;;;;;;;;
2023/05/06 16:09:05;;;;;;;;;;;;;;;;;;;;;
2023/05/06 16:15:15;;;;;;;;;;;;;;;;;;;;;
2023/05/06 16:20:46;;;;;;;;;2.00;2.00;;;;;;;;6351825;22;28372;-89
2023/05/06 16:32:57;;;;;;;;;;;;;;;;;;;;;
2023/05/06 16:35:53;;;;;;;;;;;;;;;;;;;;;
2023/05/06 16:42:03;;;;;;;;;;;;;;;;;;;;;
2023/05/06 16:47:52;;;;;;;;;;;;;;;;;;;;;
2023/05/06 17:12:28;;;;;;;;;;;;;;;;;;;;;
2023/05/06 17:18:20;;;;;;;;;;;;;;;;;;;;;
2023/05/06 17:21:18;;;;;;;;;2.00;2.00;;;;;;;;6316925;22;28411;-91
2023/05/06 17:30:27;;;;;;;;;;;;;;;;;;;;;
2023/05/06 17:36:58;;;;;;;;;2.00;2.00;;;;;;;;6158177;23;28496;-92
2023/05/06 17:41:58;;;;;;;;;;;;;;;;;;;;;
2023/05/06 17:47:42;;;;;;;;;;;;;;;;;;;;;
2023/05/06 17:56:51;;;;;;;;;;;;;;;;;;;;;
2023/05/06 18:02:59;;;;;;;;;;;;;;;;;;;;;
2023/05/06 18:08:58;;;;;;;;;2.00;2.00;;;;;;;;6090847;23;28299;-91
2023/05/06 18:18:02;;;;;;;;;;;;;;;;;;;;;
2023/05/06 18:30:03;;;;;;;;;;;;;;;;;;;;;
2023/05/06 18:44:43;;;;;;;;;;;;;;;;;;;;;
2023/05/06 18:47:42;;;;;;;;;;;;;;;;;;;;;
2023/05/06 18:50:27;;;;;;;;;2.00;2.00;;;;;;;;6260417;22;58616;-91
